createdAt,value
2023-04-02T00:05:51.693Z,97113.28
2023-04-02T00:15:58.291Z,97115.13
2023-04-02T00:26:00.628Z,97127.03
2023-04-02T00:36:08.285Z,97135.75
2023-04-02T00:46:22.298Z,97142.22
2023-04-02T00:56:47.675Z,97135.53
2023-04-02T01:06:53.722Z,97128.56
2023-04-02T01:17:15.837Z,97127.47
2023-04-02T01:27:50.768Z,97130.16
2023-04-02T01:38:19.571Z,97147.09
2023-04-02T01:48:28.277Z,97128.97
2023-04-02T01:58:33.964Z,97134.97
2023-04-02T02:08:47.118Z,97146.28
2023-04-02T02:18:56.561Z,97140.84
2023-04-02T02:29:00.136Z,97146.22
2023-04-02T02:39:33.659Z,97163.94
2023-04-02T02:49:41.779Z,97180.91
2023-04-02T02:59:46.027Z,97180.47
2023-04-02T03:10:14.253Z,97176.47
2023-04-02T03:20:26.390Z,97178.44
2023-04-02T03:30:58.767Z,97183.59
2023-04-02T03:41:23.111Z,97191.66
2023-04-02T03:51:33.689Z,97199.97
2023-04-02T04:01:44.042Z,97221.22
2023-04-02T04:11:50.569Z,97214.25
2023-04-02T04:21:57.348Z,97210.81
2023-04-02T04:32:34.039Z,97211.63
2023-04-02T04:42:42.123Z,97221.84
2023-04-02T04:52:44.842Z,97234.50
2023-04-02T05:03:09.525Z,97242.84
2023-04-02T05:13:21.673Z,97246.09
2023-04-02T05:23:29.103Z,97262.53
2023-04-02T05:33:36.605Z,97269.25
2023-04-02T05:43:44.939Z,97275.50
2023-04-02T05:53:54.074Z,97283.34
2023-04-02T06:04:31.827Z,97286.22
2023-04-02T06:14:34.400Z,97294.16
2023-04-02T06:24:40.004Z,97315.47
2023-04-02T06:34:43.060Z,97320.63
2023-04-02T06:44:45.657Z,97333.34
2023-04-02T06:54:48.932Z,97354.97
2023-04-02T07:04:51.821Z,97357.78
2023-04-02T07:14:54.295Z,97371.44
2023-04-02T07:24:56.813Z,97383.47
2023-04-02T07:34:59.764Z,97394.87
2023-04-02T07:45:04.646Z,97405.47
2023-04-02T07:55:13.607Z,97417.94
2023-04-02T08:05:16.532Z,97419.00
2023-04-02T08:15:20.271Z,97432.78
2023-04-02T08:25:25.034Z,97445.69
2023-04-02T08:35:27.853Z,97448.25
2023-04-02T08:45:51.808Z,97465.63
2023-04-02T08:56:06.103Z,97473.06
2023-04-02T09:06:14.783Z,97468.69
2023-04-02T09:16:26.172Z,97483.28
2023-04-02T09:26:33.602Z,97496.81
2023-04-02T09:36:39.805Z,97497.03
2023-04-02T09:46:53.828Z,97508.37
2023-04-02T09:57:04.959Z,97514.00
2023-04-02T10:07:07.504Z,97526.38
2023-04-02T10:17:31.703Z,97532.78
2023-04-02T10:27:57.089Z,97530.66
2023-04-02T10:38:35.323Z,97546.66
2023-04-02T10:48:42.891Z,97541.75
2023-04-02T10:59:02.923Z,97562.69
2023-04-02T11:09:11.587Z,97565.97
2023-04-02T11:19:20.160Z,97578.03
2023-04-02T11:29:28.072Z,97590.03
2023-04-02T11:39:54.107Z,97601.84
2023-04-02T11:49:58.721Z,97609.38
2023-04-02T12:00:11.755Z,97612.81
2023-04-02T12:10:20.436Z,97620.44
2023-04-02T12:20:27.824Z,97617.69
2023-04-02T12:30:30.931Z,97619.56
2023-04-02T12:40:33.443Z,97634.22
2023-04-02T12:50:37.188Z,97634.09
2023-04-02T13:00:40.720Z,97633.00
2023-04-02T13:10:44.599Z,97637.22
2023-04-02T13:21:07.518Z,97650.16
2023-04-02T13:31:20.061Z,97644.50
2023-04-02T13:41:34.348Z,97645.22
2023-04-02T13:51:41.667Z,97653.22
2023-04-02T14:01:51.705Z,97650.88
2023-04-02T14:12:05.006Z,97664.91
2023-04-02T14:22:21.469Z,97664.19
2023-04-02T14:32:52.366Z,97675.09
2023-04-02T14:43:06.621Z,97687.62
2023-04-02T14:53:19.897Z,97692.56
2023-04-02T15:03:25.550Z,97702.44
2023-04-02T15:13:39.029Z,97700.97
2023-04-02T15:24:02.711Z,97687.47
2023-04-02T15:34:14.489Z,97699.44
2023-04-02T15:44:18.075Z,97694.03
2023-04-02T15:54:36.598Z,97699.00
2023-04-02T16:04:54.286Z,97696.34
2023-04-02T16:15:09.509Z,97724.09
2023-04-02T16:25:19.564Z,97736.00
2023-04-02T16:35:58.671Z,97738.75
2023-04-02T16:46:40.239Z,97756.12
2023-04-02T16:56:49.500Z,97759.59
2023-04-02T17:07:22.048Z,97763.38
2023-04-02T17:17:25.521Z,97773.91
2023-04-02T17:27:45.825Z,97790.25
2023-04-02T17:38:03.261Z,97801.75
2023-04-02T17:48:27.361Z,97823.19
2023-04-02T17:59:00.088Z,97830.50
2023-04-02T18:09:34.916Z,97847.75
2023-04-02T18:20:04.129Z,97856.28
2023-04-02T18:30:21.353Z,97868.88
2023-04-02T18:40:41.860Z,97881.19
2023-04-02T18:50:47.136Z,97896.44
2023-04-02T19:00:51.742Z,97912.28
2023-04-02T19:11:01.141Z,97926.25
2023-04-02T19:21:25.463Z,97936.31
2023-04-02T19:31:53.325Z,97958.91
2023-04-02T19:42:19.679Z,97968.41
2023-04-02T19:52:22.081Z,97985.75
2023-04-02T20:02:24.699Z,97988.44
2023-04-02T20:12:27.268Z,98005.50
2023-04-02T20:22:29.929Z,98021.63
2023-04-02T20:32:32.592Z,98034.22
2023-04-02T20:42:35.034Z,98039.25
2023-04-02T20:52:38.199Z,98053.91
2023-04-02T21:02:40.755Z,98057.00
2023-04-02T21:12:43.363Z,98064.37
2023-04-02T21:22:45.965Z,98072.19
2023-04-02T21:32:49.590Z,98089.47
2023-04-02T21:42:52.229Z,98102.53
2023-04-02T21:52:54.747Z,98097.28
2023-04-02T22:02:57.558Z,98102.22
2023-04-02T22:13:00.190Z,98110.59
2023-04-02T22:23:02.715Z,98120.44
2023-04-02T22:33:05.210Z,98126.87
2023-04-02T22:43:07.595Z,98135.06
2023-04-02T22:53:12.278Z,98133.91
2023-04-02T23:03:14.648Z,98143.25
2023-04-02T23:13:17.108Z,98139.84
2023-04-02T23:23:19.604Z,98153.09
2023-04-02T23:33:22.388Z,98151.97
2023-04-02T23:43:24.750Z,98158.97
2023-04-02T23:53:27.225Z,98163.25
